Time;durP1;ratioP1;P1;durP2;ratioP2;P2;SDS_P1;SDS_P2;PMS_P1;PMS_P2;Temp;Humidity;BMP_temperature;BMP_pressure;BME280_temperature;BME280_humidity;BME280_pressure;Samples;Min_cycle;Max_cycle;Signal;HPM_P1;HPM_P2
2022/12/06 00:01:34;;;;;;;6.68;2.67;;;4.70;99.90;;;;;;4995192;28;20040;-65
2022/12/06 00:04:05;;;;;;;5.63;2.53;;;4.70;99.90;;;;;;5004409;28;20057;-65
2022/12/06 00:06:35;;;;;;;4.05;1.95;;;4.70;99.90;;;;;;5006554;28;20033;-64
2022/12/06 00:09:01;;;;;;;4.73;2.30;;;4.70;99.90;;;;;;5004561;28;20090;-64
2022/12/06 00:11:33;;;;;;;9.65;3.30;;;4.70;99.90;;;;;;5006753;28;20172;-64
2022/12/06 00:14:05;;;;;;;4.65;2.67;;;4.70;99.90;;;;;;5004154;28;20493;-65
2022/12/06 00:16:33;;;;;;;3.85;2.55;;;4.70;99.90;;;;;;5006468;28;20041;-64
2022/12/06 00:18:59;;;;;;;5.32;2.42;;;4.70;99.90;;;;;;5004019;28;20105;-64
2022/12/06 00:21:33;;;;;;;5.53;2.95;;;4.70;99.90;;;;;;4991380;28;20111;-64
2022/12/06 00:24:01;;;;;;;4.15;2.33;;;4.60;99.90;;;;;;5003962;28;20088;-64
2022/12/06 00:26:28;;;;;;;6.55;3.50;;;4.70;99.90;;;;;;5006417;28;20126;-65
2022/12/06 00:28:58;;;;;;;5.78;3.38;;;4.60;99.90;;;;;;5004090;28;20226;-66
2022/12/06 00:31:27;;;;;;;4.72;2.17;;;4.70;99.90;;;;;;4991296;28;20045;-66
2022/12/06 00:33:53;;;;;;;9.02;3.67;;;4.80;99.90;;;;;;4994544;28;20030;-66
2022/12/06 00:36:22;;;;;;;5.78;2.75;;;4.80;99.90;;;;;;5006075;28;20425;-66
2022/12/06 00:38:49;;;;;;;5.43;3.22;;;4.80;99.90;;;;;;4994245;28;20117;-65
2022/12/06 00:41:21;;;;;;;4.13;2.00;;;4.90;99.90;;;;;;5005395;28;20025;-66
2022/12/06 00:43:47;;;;;;;5.50;2.67;;;5.00;99.90;;;;;;5003724;28;20122;-65
2022/12/06 00:46:18;;;;;;;7.20;2.88;;;4.90;99.90;;;;;;5005738;28;20026;-66
2022/12/06 00:48:44;;;;;;;5.82;2.58;;;4.90;99.90;;;;;;5024958;23;20050;-69
2022/12/06 00:51:11;;;;;;;4.40;2.40;;;4.80;99.90;;;;;;5010949;28;20025;-72
2022/12/06 00:53:37;;;;;;;3.40;1.85;;;4.80;99.90;;;;;;5007162;28;20033;-70
2022/12/06 00:56:03;;;;;;;4.75;3.03;;;4.80;99.90;;;;;;5014057;28;20037;-70
2022/12/06 00:58:29;;;;;;;3.83;2.42;;;4.80;99.90;;;;;;4994317;28;20109;-70
2022/12/06 01:00:54;;;;;;;5.05;2.83;;;4.70;99.90;;;;;;5003728;28;20311;-70
2022/12/06 01:03:20;;;;;;;3.13;2.45;;;4.80;99.90;;;;;;4998995;28;20105;-70
2022/12/06 01:05:49;;;;;;;6.32;2.45;;;4.80;99.90;;;;;;4994154;28;20061;-70
2022/12/06 01:08:17;;;;;;;6.07;2.47;;;4.80;99.90;;;;;;4998820;28;20500;-70
2022/12/06 01:10:54;;;;;;;6.88;2.53;;;4.90;99.90;;;;;;5003686;28;20112;-70
2022/12/06 01:13:20;;;;;;;4.70;2.80;;;4.90;99.90;;;;;;4998979;28;20119;-70
2022/12/06 01:15:46;;;;;;;6.97;3.08;;;4.90;99.90;;;;;;5003419;28;20036;-70
2022/12/06 01:18:11;;;;;;;4.25;2.42;;;4.80;99.90;;;;;;4998833;28;20029;-70
2022/12/06 01:20:37;;;;;;;3.88;1.98;;;4.80;99.90;;;;;;5003266;28;20052;-70
2022/12/06 01:23:03;;;;;;;4.47;2.70;;;4.80;99.90;;;;;;4998862;28;20129;-70
2022/12/06 01:25:29;;;;;;;9.20;3.10;;;4.90;99.90;;;;;;5003039;28;20028;-70
2022/12/06 01:27:55;;;;;;;3.35;2.15;;;4.80;99.90;;;;;;4999133;28;20035;-70
2022/12/06 01:30:21;;;;;;;4.63;3.10;;;4.80;99.90;;;;;;4993410;28;20041;-70
2022/12/06 01:32:47;;;;;;;3.65;2.10;;;4.80;99.90;;;;;;4999309;28;20045;-70
2022/12/06 01:35:12;;;;;;;6.18;2.88;;;4.80;99.90;;;;;;4980991;28;20084;-70
2022/12/06 01:37:38;;;;;;;5.53;2.88;;;4.90;99.90;;;;;;4986630;28;20050;-71
2022/12/06 01:40:05;;;;;;;5.22;2.40;;;4.90;99.90;;;;;;5000529;28;20034;-70
2022/12/06 01:42:30;;;;;;;5.53;3.10;;;4.90;99.90;;;;;;5003336;28;20038;-70
2022/12/06 01:44:58;;;;;;;4.00;2.00;;;5.00;99.90;;;;;;4998617;28;20026;-70
2022/12/06 01:47:36;;;;;;;5.97;2.10;;;5.00;99.90;;;;;;5004585;28;20042;-72
2022/12/06 01:50:31;;;;;;;4.03;2.22;;;5.00;99.90;;;;;;4989699;28;20633;-72
2022/12/06 01:53:10;;;;;;;3.53;2.03;;;5.00;99.90;;;;;;4997618;28;20053;-72
2022/12/06 01:55:39;;;;;;;4.38;2.50;;;5.00;99.90;;;;;;5002869;28;20026;-71
2022/12/06 01:58:28;;;;;;;4.53;2.20;;;5.00;99.90;;;;;;4985761;28;20034;-72
2022/12/06 02:00:54;;;;;;;6.75;2.97;;;5.00;99.90;;;;;;4995159;28;20062;-72
2022/12/06 02:03:24;;;;;;;9.75;2.55;;;5.00;99.90;;;;;;4997795;28;20056;-70
2022/12/06 02:05:51;;;;;;;4.22;2.58;;;5.00;99.90;;;;;;4972262;28;20023;-72
2022/12/06 02:08:19;;;;;;;7.60;3.42;;;5.10;99.90;;;;;;4963638;28;20398;-71
2022/12/06 02:10:44;;;;;;;3.17;2.30;;;5.00;99.90;;;;;;4977044;28;20046;-72
2022/12/06 02:13:10;;;;;;;3.55;2.63;;;5.10;99.90;;;;;;4987431;28;20033;-72
2022/12/06 02:15:49;;;;;;;8.85;2.75;;;5.10;99.90;;;;;;4990678;28;20065;-72
2022/12/06 02:19:02;;;;;;;3.65;2.60;;;5.10;99.90;;;;;;4985918;28;20630;-72
2022/12/06 02:21:53;;;;;;;4.50;2.10;;;5.10;99.90;;;;;;4984441;28;20038;-72
2022/12/06 02:25:27;;;;;;;5.45;2.20;;;5.10;99.90;;;;;;4991645;28;20030;-72
2022/12/06 02:28:26;;;;;;;3.45;1.50;;;5.10;99.90;;;;;;4915577;28;20499;-72
2022/12/06 02:31:21;;;;;;;6.15;2.72;;;5.00;99.90;;;;;;4994706;28;20054;-72
2022/12/06 02:34:09;;;;;;;4.90;2.75;;;5.00;99.90;;;;;;4997601;28;20038;-71
2022/12/06 02:37:23;;;;;;;4.20;2.33;;;4.90;99.90;;;;;;4979777;28;20027;-72
2022/12/06 02:40:12;;;;;;;4.75;2.72;;;4.80;99.90;;;;;;4983891;28;20088;-72
2022/12/06 02:42:46;;;;;;;4.15;2.03;;;4.80;99.90;;;;;;4955693;28;20030;-72
2022/12/06 02:45:18;;;;;;;5.15;2.55;;;4.70;99.90;;;;;;4976561;28;20022;-72
2022/12/06 02:47:45;;;;;;;6.35;3.05;;;4.70;99.90;;;;;;4998660;28;20038;-70
2022/12/06 02:50:18;;;;;;;5.75;2.17;;;4.70;99.90;;;;;;4992479;28;20097;-71
2022/12/06 02:52:52;;;;;;;5.75;3.15;;;4.70;99.90;;;;;;4986954;28;20409;-71
2022/12/06 02:55:19;;;;;;;8.40;3.30;;;4.60;99.90;;;;;;4974960;28;20026;-71
2022/12/06 02:57:52;;;;;;;2.78;1.90;;;4.60;99.90;;;;;;4986561;28;20034;-71
2022/12/06 03:00:43;;;;;;;4.13;2.72;;;4.60;99.90;;;;;;4991711;28;20431;-71
2022/12/06 03:03:16;;;;;;;5.22;2.30;;;4.60;99.90;;;;;;4987306;28;20033;-71
2022/12/06 03:06:01;;;;;;;2.97;1.58;;;4.60;99.90;;;;;;4996284;28;20118;-71
2022/12/06 03:08:45;;;;;;;3.88;2.30;;;4.60;99.90;;;;;;5001221;28;20037;-71
2022/12/06 03:11:11;;;;;;;3.67;2.30;;;4.60;99.90;;;;;;5005919;28;20432;-71
2022/12/06 03:14:11;;;;;;;5.75;3.03;;;4.60;99.90;;;;;;4989229;28;20104;-71
2022/12/06 03:17:09;;;;;;;5.32;2.72;;;4.60;99.90;;;;;;5008561;28;20458;-71
2022/12/06 03:19:37;;;;;;;4.03;2.22;;;4.70;99.90;;;;;;4966311;28;20402;-71
2022/12/06 03:22:09;;;;;;;2.95;1.67;;;4.60;99.90;;;;;;4995854;28;20108;-71
2022/12/06 03:24:39;;;;;;;4.15;2.42;;;4.60;99.90;;;;;;4996752;28;20060;-71
2022/12/06 03:27:17;;;;;;;3.78;1.98;;;4.60;99.90;;;;;;4994907;28;20037;-71
2022/12/06 03:29:51;;;;;;;5.03;2.03;;;4.60;99.90;;;;;;4984730;28;20041;-71
2022/12/06 03:32:22;;;;;;;5.15;2.30;;;4.60;99.90;;;;;;4973179;28;20090;-71
2022/12/06 03:34:53;;;;;;;3.58;2.45;;;4.60;99.90;;;;;;4998311;28;20169;-71
2022/12/06 03:37:23;;;;;;;3.50;2.15;;;4.50;99.90;;;;;;4991427;28;20042;-71
2022/12/06 03:40:41;;;;;;;8.38;2.95;;;4.50;99.90;;;;;;4986500;28;20096;-71
2022/12/06 03:43:07;;;;;;;3.95;1.92;;;4.60;99.90;;;;;;4967319;28;20430;-71
2022/12/06 03:45:48;;;;;;;4.40;2.15;;;4.50;99.90;;;;;;5004953;28;20132;-71
2022/12/06 03:48:21;;;;;;;3.58;2.08;;;4.50;99.90;;;;;;5000237;28;20432;-71
2022/12/06 03:50:54;;;;;;;2.45;1.63;;;4.60;99.90;;;;;;4995898;28;20048;-71
2022/12/06 03:53:20;;;;;;;4.65;2.30;;;4.60;99.90;;;;;;4989065;28;20088;-71
2022/12/06 03:55:46;;;;;;;7.97;2.05;;;4.50;99.90;;;;;;5004918;28;20481;-71
2022/12/06 03:58:12;;;;;;;6.50;2.97;;;4.60;99.90;;;;;;5000196;28;20072;-71
2022/12/06 04:00:38;;;;;;;4.97;2.55;;;4.60;99.90;;;;;;5004748;28;20029;-71
2022/12/06 04:03:03;;;;;;;4.32;1.75;;;4.60;99.90;;;;;;4997181;28;20049;-71
2022/12/06 04:05:29;;;;;;;6.55;2.42;;;4.60;99.90;;;;;;4975268;28;20124;-71
2022/12/06 04:07:55;;;;;;;3.53;2.05;;;4.70;99.90;;;;;;4987543;28;20039;-71
2022/12/06 04:10:21;;;;;;;7.60;2.55;;;4.70;99.90;;;;;;5004774;28;20113;-71
2022/12/06 04:12:59;;;;;;;5.20;1.92;;;4.70;99.90;;;;;;4973475;28;20042;-71
2022/12/06 04:15:27;;;;;;;5.47;1.42;;;4.70;99.90;;;;;;5003433;28;20037;-70
2022/12/06 04:23:36;;;;;;;5.43;2.47;;;4.80;99.90;;;;;;4999709;28;20037;-71
2022/12/06 04:26:05;;;;;;;6.82;2.17;;;4.80;99.90;;;;;;5004413;28;20022;-71
2022/12/06 04:39:30;;;;;;;5.35;2.60;;;4.70;99.90;;;;;;5000017;28;20038;-71
2022/12/06 04:44:40;;;;;;;4.75;2.58;;;4.70;99.90;;;;;;4982163;28;20038;-71
2022/12/06 04:47:07;;;;;;;7.95;3.13;;;4.80;99.90;;;;;;5009528;28;20088;-71
2022/12/06 04:49:33;;;;;;;2.85;2.08;;;4.70;99.90;;;;;;4980382;28;20490;-71
2022/12/06 04:51:59;;;;;;;6.80;2.75;;;4.70;99.90;;;;;;5010288;28;20042;-71
2022/12/06 04:54:25;;;;;;;3.20;1.58;;;4.70;99.90;;;;;;4993947;28;20041;-71
2022/12/06 04:56:52;;;;;;;3.08;2.47;;;4.70;99.90;;;;;;5008874;28;20080;-71
2022/12/06 04:59:19;;;;;;;4.20;1.58;;;4.60;99.90;;;;;;4994997;28;20406;-71
2022/12/06 05:01:44;;;;;;;2.92;1.67;;;4.60;99.90;;;;;;5008018;28;20032;-71
2022/12/06 05:04:10;;;;;;;2.78;1.92;;;4.60;99.90;;;;;;4978430;28;20106;-71
2022/12/06 05:06:36;;;;;;;3.95;1.40;;;4.60;99.90;;;;;;4990634;28;20033;-71
2022/12/06 05:09:03;;;;;;;2.17;1.20;;;4.70;99.90;;;;;;4993699;28;20144;-71
2022/12/06 05:11:28;;;;;;;1.27;0.88;;;4.60;99.90;;;;;;4994020;28;20490;-71
2022/12/06 05:13:54;;;;;;;4.82;2.53;;;4.70;99.90;;;;;;4993293;28;20038;-71
2022/12/06 05:16:20;;;;;;;2.88;1.35;;;4.70;99.90;;;;;;4989306;28;20363;-71
2022/12/06 05:18:46;;;;;;;1.05;0.68;;;4.70;99.90;;;;;;4998685;28;20034;-71
2022/12/06 05:21:16;;;;;;;1.65;0.95;;;4.70;99.90;;;;;;5003260;28;20022;-71
2022/12/06 05:23:42;;;;;;;2.83;1.17;;;4.80;99.90;;;;;;4986474;28;20029;-71
2022/12/06 05:26:13;;;;;;;2.08;1.30;;;4.80;99.90;;;;;;4993373;28;20397;-71
2022/12/06 05:28:39;;;;;;;4.47;1.67;;;5.00;99.90;;;;;;4986666;28;20057;-71
2022/12/06 05:31:05;;;;;;;2.05;1.35;;;5.00;99.90;;;;;;5003088;28;20401;-71
2022/12/06 05:33:31;;;;;;;1.52;1.33;;;5.10;99.90;;;;;;4998298;28;20038;-71
2022/12/06 05:35:57;;;;;;;1.73;1.00;;;5.00;99.90;;;;;;5002661;28;20520;-71
2022/12/06 05:38:23;;;;;;;1.92;1.50;;;4.90;99.90;;;;;;4998553;28;20041;-71
2022/12/06 05:40:50;;;;;;;1.65;1.13;;;5.00;99.90;;;;;;4993379;28;20049;-71
2022/12/06 05:43:16;;;;;;;7.47;1.40;;;5.00;99.90;;;;;;4998367;28;20164;-71
2022/12/06 05:45:42;;;;;;;2.15;1.02;;;5.10;99.90;;;;;;5002535;28;20030;-71
2022/12/06 05:48:08;;;;;;;1.10;0.70;;;5.10;99.90;;;;;;4986146;28;20033;-71
2022/12/06 05:50:35;;;;;;;3.10;2.08;;;4.90;99.90;;;;;;4988600;28;20042;-71
2022/12/06 05:53:01;;;;;;;3.00;1.08;;;4.90;99.90;;;;;;4966346;28;20030;-71
2022/12/06 05:55:27;;;;;;;4.63;2.55;;;4.90;99.90;;;;;;4978734;28;20022;-70
2022/12/06 05:57:53;;;;;;;3.50;1.08;;;5.00;99.90;;;;;;4989749;28;20046;-70
2022/12/06 06:00:20;;;;;;;1.15;0.82;;;5.00;99.90;;;;;;5007747;28;20080;-71
2022/12/06 06:02:47;;;;;;;2.15;1.52;;;5.00;99.90;;;;;;4982292;28;20030;-71
2022/12/06 06:05:13;;;;;;;1.85;1.25;;;5.00;99.90;;;;;;4988034;28;20120;-71
2022/12/06 06:07:39;;;;;;;4.07;1.58;;;4.90;99.90;;;;;;4969228;28;20466;-71
2022/12/06 06:10:06;;;;;;;2.72;1.60;;;5.00;99.90;;;;;;5000059;28;20053;-71
2022/12/06 06:12:32;;;;;;;3.35;1.85;;;5.00;99.90;;;;;;4969367;28;20390;-71
2022/12/06 06:14:58;;;;;;;1.60;0.93;;;5.10;99.90;;;;;;4997961;28;20030;-71
2022/12/06 06:17:23;;;;;;;3.75;1.48;;;5.00;99.90;;;;;;5000849;28;20031;-70
2022/12/06 06:19:50;;;;;;;1.23;1.13;;;4.90;99.90;;;;;;4970237;28;20479;-71
2022/12/06 06:22:17;;;;;;;2.95;1.30;;;5.00;99.90;;;;;;4981164;28;20562;-70
2022/12/06 06:24:43;;;;;;;2.63;1.52;;;4.90;99.90;;;;;;4994404;28;20038;-70
2022/12/06 06:27:09;;;;;;;5.15;1.27;;;4.90;99.90;;;;;;4983280;28;20033;-70
2022/12/06 06:29:35;;;;;;;3.75;2.13;;;4.90;99.90;;;;;;4993387;28;20101;-70
2022/12/06 06:32:01;;;;;;;6.25;1.10;;;5.00;99.90;;;;;;5008470;28;20022;-70
2022/12/06 06:34:26;;;;;;;2.28;1.52;;;5.00;99.90;;;;;;4976627;28;20058;-69
2022/12/06 06:36:52;;;;;;;4.80;2.10;;;5.10;99.90;;;;;;5007012;28;20062;-70
2022/12/06 06:39:18;;;;;;;2.13;1.33;;;5.10;99.90;;;;;;4985067;28;20109;-69
2022/12/06 06:41:45;;;;;;;3.90;1.92;;;5.00;99.90;;;;;;5009875;28;20034;-70
2022/12/06 06:44:11;;;;;;;3.03;1.40;;;5.00;99.90;;;;;;4997801;28;20050;-70
2022/12/06 06:46:37;;;;;;;3.92;1.63;;;5.00;99.90;;;;;;4986191;28;20022;-70
2022/12/06 06:49:03;;;;;;;5.60;1.98;;;5.00;99.90;;;;;;4925602;23;20055;-71
2022/12/06 06:51:30;;;;;;;2.85;1.73;;;5.10;99.90;;;;;;4993044;28;20037;-72
2022/12/06 06:53:57;;;;;;;2.25;1.23;;;5.20;99.90;;;;;;4984533;28;20156;-71
2022/12/06 06:56:22;;;;;;;4.05;2.00;;;5.20;99.90;;;;;;5005603;28;20030;-71
2022/12/06 06:58:48;;;;;;;2.33;1.38;;;5.10;99.90;;;;;;4997950;28;20061;-70
2022/12/06 07:01:19;;;;;;;3.05;1.92;;;5.10;99.90;;;;;;4997431;28;20091;-54
2022/12/06 07:03:45;;;;;;;3.10;2.20;;;5.10;99.90;;;;;;4983669;28;20457;-54
2022/12/06 07:06:11;;;;;;;4.47;2.97;;;5.20;99.90;;;;;;4983346;28;20044;-54
2022/12/06 07:08:38;;;;;;;2.45;1.50;;;5.30;99.90;;;;;;5005552;28;20022;-68
2022/12/06 07:11:05;;;;;;;2.35;1.33;;;5.30;99.90;;;;;;4991480;28;20034;-67
2022/12/06 07:13:31;;;;;;;4.32;1.95;;;5.30;99.90;;;;;;4994061;28;20116;-73
2022/12/06 07:15:57;;;;;;;3.63;1.80;;;5.20;99.90;;;;;;4977208;28;20537;-76
2022/12/06 07:18:24;;;;;;;6.07;1.90;;;5.30;99.90;;;;;;5005244;28;20037;-73
2022/12/06 07:20:59;;;;;;;1.95;1.67;;;5.30;99.90;;;;;;5007333;28;20026;-71
2022/12/06 07:23:25;;;;;;;3.95;2.13;;;5.20;99.90;;;;;;5004980;28;20025;-72
2022/12/06 07:26:14;;;;;;;2.92;1.67;;;5.20;99.90;;;;;;4991483;28;20030;-71
2022/12/06 07:28:42;;;;;;;8.15;2.45;;;5.10;99.90;;;;;;4984629;28;20030;-72
2022/12/06 07:31:24;;;;;;;6.07;2.17;;;5.20;99.90;;;;;;4995721;28;20073;-71
2022/12/06 07:33:56;;;;;;;3.30;1.60;;;5.10;99.90;;;;;;5004473;28;20061;-71
2022/12/06 07:36:24;;;;;;;3.65;1.70;;;5.10;99.90;;;;;;5006789;28;20524;-71
2022/12/06 07:38:54;;;;;;;3.85;2.25;;;5.00;99.90;;;;;;4986828;28;20037;-70
2022/12/06 07:46:55;;;;;;;2.33;1.40;;;5.10;99.90;;;;;;5000139;28;20041;-70
2022/12/06 07:49:21;;;;;;;5.13;2.10;;;5.20;99.90;;;;;;5004390;28;20382;-70
2022/12/06 07:51:47;;;;;;;13.20;2.30;;;5.20;99.90;;;;;;4991366;28;20029;-71
2022/12/06 07:54:16;;;;;;;2.90;1.60;;;5.20;99.90;;;;;;4970647;28;20400;-71
2022/12/06 07:56:42;;;;;;;2.67;1.70;;;5.20;99.90;;;;;;5001958;28;20038;-70
2022/12/06 07:59:09;;;;;;;4.53;2.15;;;5.20;99.90;;;;;;5000444;28;20038;-70
2022/12/06 08:01:35;;;;;;;1.13;0.90;;;5.10;99.90;;;;;;4996323;28;20034;-70
2022/12/06 08:04:03;;;;;;;4.45;2.63;;;5.00;99.90;;;;;;5003943;28;20033;-74
2022/12/06 08:06:30;;;;;;;7.15;2.33;;;5.10;99.90;;;;;;4984262;28;20025;-76
2022/12/06 08:08:56;;;;;;;4.78;2.42;;;5.20;99.90;;;;;;5003926;28;20030;-69
2022/12/06 08:11:23;;;;;;;4.15;1.73;;;5.20;99.90;;;;;;5006076;28;20034;-75
2022/12/06 08:13:49;;;;;;;2.90;1.60;;;5.20;99.90;;;;;;4970356;28;20042;-72
2022/12/06 08:16:16;;;;;;;1.73;1.45;;;5.20;99.90;;;;;;4990960;28;20037;-72
2022/12/06 08:18:42;;;;;;;1.60;1.15;;;5.10;99.90;;;;;;5004250;28;20030;-72
2022/12/06 08:21:08;;;;;;;3.65;1.80;;;4.90;99.90;;;;;;5006180;28;20135;-75
2022/12/06 08:23:35;;;;;;;2.83;1.70;;;4.90;99.90;;;;;;4986299;28;20025;-73
2022/12/06 08:26:11;;;;;;;7.22;1.88;;;5.00;99.90;;;;;;5005719;28;20029;-73
2022/12/06 08:28:38;;;;;;;2.97;1.60;;;5.00;99.90;;;;;;4995584;28;20592;-74
2022/12/06 08:31:17;;;;;;;5.88;2.17;;;5.10;99.90;;;;;;4991904;28;20038;-74
2022/12/06 08:33:44;;;;;;;6.53;1.90;;;5.00;99.90;;;;;;5003501;28;20113;-75
2022/12/06 08:36:20;;;;;;;3.45;2.25;;;5.10;99.90;;;;;;5007485;28;20038;-72
2022/12/06 08:38:46;;;;;;;4.65;1.45;;;4.90;99.90;;;;;;4986201;28;20087;-74
2022/12/06 08:43:59;;;;;;;1.95;1.40;;;4.90;99.90;;;;;;4988771;28;20022;-72
2022/12/06 08:46:26;;;;;;;3.30;2.25;;;4.90;99.90;;;;;;5005482;28;20030;-71
2022/12/06 08:48:52;;;;;;;3.58;1.52;;;4.90;99.90;;;;;;5003053;28;20504;-71
2022/12/06 08:51:18;;;;;;;6.50;2.85;;;5.00;99.90;;;;;;4993815;28;20038;-72
2022/12/06 08:53:44;;;;;;;3.15;1.35;;;5.10;99.90;;;;;;4999411;28;20176;-71
2022/12/06 08:56:10;;;;;;;4.35;2.08;;;5.20;99.90;;;;;;5002654;28;20026;-72
2022/12/06 08:58:36;;;;;;;2.33;1.48;;;5.30;99.90;;;;;;4976763;28;20112;-71
2022/12/06 09:01:18;;;;;;;3.72;1.58;;;5.40;99.90;;;;;;5003643;28;20057;-71
2022/12/06 09:03:44;;;;;;;1.92;1.42;;;5.40;99.90;;;;;;5008062;28;20482;-71
2022/12/06 09:06:10;;;;;;;4.50;1.67;;;5.50;99.90;;;;;;5005023;28;20036;-71
2022/12/06 09:08:37;;;;;;;3.30;1.98;;;5.60;99.90;;;;;;4993855;28;20037;-71
2022/12/06 09:11:04;;;;;;;2.25;1.45;;;5.60;99.90;;;;;;5003328;28;20038;-71
2022/12/06 09:13:30;;;;;;;3.88;1.95;;;5.70;99.90;;;;;;4974297;28;20034;-71
2022/12/06 09:15:56;;;;;;;8.02;2.80;;;5.80;99.90;;;;;;4991863;28;20113;-71
2022/12/06 09:18:22;;;;;;;3.22;1.90;;;5.70;99.90;;;;;;4991839;28;20030;-71
2022/12/06 09:20:48;;;;;;;3.63;1.90;;;5.80;99.90;;;;;;4992123;28;20035;-71
2022/12/06 09:23:13;;;;;;;1.70;1.35;;;5.70;99.90;;;;;;4974062;28;20029;-71
2022/12/06 09:25:42;;;;;;;1.85;1.35;;;5.70;99.90;;;;;;4991735;28;20034;-71
2022/12/06 09:28:10;;;;;;;3.28;1.50;;;5.80;99.90;;;;;;4991637;28;20552;-71
2022/12/06 09:30:36;;;;;;;2.90;1.60;;;5.80;99.90;;;;;;4991342;28;20049;-71
2022/12/06 09:33:01;;;;;;;2.47;1.27;;;5.70;99.90;;;;;;4991291;28;20042;-71
2022/12/06 09:35:28;;;;;;;3.70;2.28;;;5.70;99.90;;;;;;4991238;28;20040;-71
2022/12/06 09:37:53;;;;;;;6.32;1.80;;;5.70;99.90;;;;;;4973957;28;20048;-71
2022/12/06 09:40:52;;;;;;;3.58;1.90;;;5.80;99.90;;;;;;4973938;28;20402;-71
2022/12/06 09:43:31;;;;;;;2.15;1.40;;;5.80;99.90;;;;;;4969347;28;20126;-71
2022/12/06 09:46:09;;;;;;;2.58;1.52;;;5.80;99.90;;;;;;4975057;28;20019;-70
2022/12/06 09:49:10;;;;;;;3.15;1.17;;;5.80;99.90;;;;;;4991061;28;20487;-71
2022/12/06 09:52:16;;;;;;;1.45;0.88;;;5.70;99.90;;;;;;4973505;28;20045;-71
2022/12/06 09:55:03;;;;;;;5.50;1.90;;;5.60;99.90;;;;;;4990714;28;20486;-71
2022/12/06 09:57:35;;;;;;;7.10;1.50;;;5.70;99.90;;;;;;4997555;28;20057;-71
2022/12/06 10:00:06;;;;;;;2.33;1.17;;;5.80;99.90;;;;;;4991974;28;20030;-71
2022/12/06 10:03:07;;;;;;;;;;;5.80;99.90;;;;;;4966681;28;20034;-72
2022/12/06 10:06:01;;;;;;;6.28;1.92;;;5.80;99.90;;;;;;4977576;28;19937;-69
2022/12/06 10:08:53;;;;;;;4.70;2.08;;;5.80;99.90;;;;;;4976176;28;20022;-70
2022/12/06 10:12:02;;;;;;;2.03;1.27;;;5.70;99.90;;;;;;4990703;28;20443;-70
2022/12/06 10:15:20;;;;;;;3.00;1.15;;;5.70;99.90;;;;;;4990343;28;20030;-70
2022/12/06 10:17:48;;;;;;;1.15;0.93;;;5.60;99.90;;;;;;4972074;28;20031;-70
2022/12/06 10:20:52;;;;;;;3.63;1.83;;;5.70;99.90;;;;;;4996632;28;20101;-70
2022/12/06 10:24:01;;;;;;;4.53;1.35;;;5.70;99.90;;;;;;4993786;28;20057;-70
2022/12/06 10:26:49;;;;;;;1.73;1.05;;;5.70;99.90;;;;;;4997482;28;20132;-70
2022/12/06 10:29:54;;;;;;;4.00;1.58;;;5.70;99.90;;;;;;4977322;28;20085;-69
2022/12/06 10:32:37;;;;;;;2.88;1.40;;;5.70;99.90;;;;;;5010594;28;20025;-69
2022/12/06 10:36:03;;;;;;;3.20;1.45;;;5.70;99.90;;;;;;5009950;28;20120;-69
2022/12/06 10:38:59;;;;;;;2.15;1.08;;;5.70;99.90;;;;;;4922262;29;20457;-69
2022/12/06 10:41:32;;;;;;;1.85;0.82;;;5.80;99.90;;;;;;4926177;29;20031;-69
2022/12/06 10:44:22;;;;;;;5.82;1.60;;;5.80;99.90;;;;;;4914396;29;20506;-69
2022/12/06 10:47:26;;;;;;;5.78;1.27;;;5.80;99.90;;;;;;4911398;29;20051;-71
2022/12/06 10:50:19;;;;;;;3.25;1.65;;;5.80;99.90;;;;;;4927421;29;20114;-71
2022/12/06 10:53:00;;;;;;;1.58;0.95;;;5.70;99.90;;;;;;4907703;29;20040;-70
2022/12/06 10:55:35;;;;;;;1.00;0.75;;;5.70;99.90;;;;;;4905876;29;20044;-72
2022/12/06 10:58:34;;;;;;;1.67;1.10;;;5.80;99.90;;;;;;4883962;29;20040;-70
2022/12/06 11:01:08;;;;;;;1.95;1.20;;;5.80;99.90;;;;;;4892797;29;20033;-70
2022/12/06 11:08:29;;;;;;;3.28;1.63;;;5.90;99.90;;;;;;4931970;29;20084;-70
2022/12/06 11:11:49;;;;;;;3.85;1.27;;;6.00;99.90;;;;;;4901082;29;20082;-69
2022/12/06 11:15:05;;;;;;;;;;;;;;;;;;;;;
2022/12/06 11:18:19;;;;;;;2.97;1.60;;;6.00;99.90;;;;;;4849858;29;20057;-70
2022/12/06 11:26:01;;;;;;;2.85;1.13;;;6.00;99.90;;;;;;4855330;29;20045;-69
2022/12/06 11:29:17;;;;;;;3.22;1.58;;;6.00;99.90;;;;;;4779414;29;20038;-71
2022/12/06 11:32:08;;;;;;;6.55;1.75;;;6.00;99.90;;;;;;4794654;29;20082;-70
2022/12/06 11:38:16;;;;;;;2.72;1.27;;;6.00;99.90;;;;;;4797002;29;20885;-70
2022/12/06 11:40:54;;;;;;;2.83;1.50;;;6.00;99.90;;;;;;4783248;29;20054;-69
2022/12/06 11:47:29;;;;;;;1.75;1.10;;;6.10;99.90;;;;;;4754655;29;20047;-73
2022/12/06 11:49:57;;;;;;;2.03;1.20;;;6.20;99.90;;;;;;4770964;29;20050;-71
2022/12/06 11:59:50;;;;;;;1.25;0.73;;;6.20;99.90;;;;;;5815228;23;20065;-74
2022/12/06 12:02:31;;;;;;;1.90;1.35;;;6.20;99.90;;;;;;5009856;28;20077;-70
2022/12/06 12:05:10;;;;;;;4.70;1.98;;;6.30;99.90;;;;;;5016089;28;20135;-68
2022/12/06 12:07:39;;;;;;;2.40;0.77;;;6.20;99.90;;;;;;5027651;28;20037;-68
2022/12/06 12:10:41;;;;;;;2.03;1.35;;;6.30;99.90;;;;;;4990945;28;20384;-69
2022/12/06 12:15:55;;;;;;;3.45;1.48;;;6.40;99.90;;;;;;4999787;28;20035;-68
2022/12/06 12:18:33;;;;;;;2.55;1.15;;;6.50;99.90;;;;;;4991291;28;20026;-68
2022/12/06 12:21:00;;;;;;;1.27;1.00;;;6.50;99.90;;;;;;4990860;28;20551;-68
2022/12/06 12:23:43;;;;;;;1.58;1.05;;;6.40;99.90;;;;;;4990772;28;20025;-68
2022/12/06 12:26:20;;;;;;;2.90;1.33;;;6.30;99.90;;;;;;4976155;28;20053;-68
2022/12/06 12:29:06;;;;;;;2.03;1.20;;;6.30;99.90;;;;;;4986890;28;20047;-68
2022/12/06 12:31:44;;;;;;;2.30;1.35;;;6.30;99.90;;;;;;5003907;28;20026;-68
2022/12/06 12:34:18;;;;;;;2.60;1.25;;;6.30;99.90;;;;;;4987245;28;20034;-68
2022/12/06 12:36:51;;;;;;;2.22;1.35;;;6.30;99.90;;;;;;4994178;28;20034;-68
2022/12/06 12:39:35;;;;;;;3.05;1.17;;;6.30;99.90;;;;;;4989026;28;20068;-68
2022/12/06 12:42:02;;;;;;;2.28;1.27;;;6.30;99.90;;;;;;5003541;28;20037;-69
2022/12/06 12:44:33;;;;;;;4.88;1.30;;;6.30;99.90;;;;;;4985270;28;20033;-69
2022/12/06 12:47:17;;;;;;;2.15;1.15;;;6.30;99.90;;;;;;4994552;28;20061;-68
2022/12/06 12:49:56;;;;;;;3.00;1.45;;;6.30;99.90;;;;;;4984979;28;20038;-69
2022/12/06 12:52:36;;;;;;;2.50;1.40;;;6.30;99.90;;;;;;4983698;28;20034;-70
2022/12/06 12:55:28;;;;;;;2.20;1.25;;;6.20;99.90;;;;;;4967981;28;20050;-70
2022/12/06 12:57:59;;;;;;;2.20;0.88;;;6.30;99.90;;;;;;5006649;28;20099;-72
2022/12/06 13:00:26;;;;;;;2.30;1.27;;;6.40;99.90;;;;;;4981886;28;20046;-72
2022/12/06 13:02:59;;;;;;;2.42;1.48;;;6.40;99.90;;;;;;4993954;28;20038;-72
2022/12/06 13:05:36;;;;;;;1.48;0.90;;;6.50;99.90;;;;;;4981886;28;20073;-69
2022/12/06 13:08:19;;;;;;;3.55;1.95;;;6.50;99.90;;;;;;4994048;28;20034;-74
2022/12/06 13:10:51;;;;;;;1.85;1.17;;;6.50;99.90;;;;;;4996803;28;20048;-69
2022/12/06 13:13:33;;;;;;;1.73;1.35;;;6.60;99.90;;;;;;4992564;28;20049;-71
2022/12/06 13:16:00;;;;;;;1.85;1.20;;;6.60;99.90;;;;;;4989612;28;20042;-72
2022/12/06 13:18:45;;;;;;;3.42;2.22;;;6.60;99.90;;;;;;4973807;28;20038;-72
2022/12/06 13:21:38;;;;;;;3.58;1.02;;;6.50;99.90;;;;;;4975178;28;20050;-73
2022/12/06 13:24:21;;;;;;;3.17;1.13;;;6.50;99.90;;;;;;4988711;28;20057;-72
2022/12/06 13:27:13;;;;;;;4.40;1.67;;;6.50;99.90;;;;;;4993972;28;20107;-72
2022/12/06 13:30:01;;;;;;;3.60;1.35;;;6.50;99.90;;;;;;4988643;28;20033;-72
2022/12/06 13:32:40;;;;;;;1.73;0.88;;;6.50;99.90;;;;;;4979306;28;20038;-72
2022/12/06 13:35:37;;;;;;;1.73;1.10;;;6.50;99.90;;;;;;4982288;28;20077;-72
2022/12/06 13:38:18;;;;;;;3.33;1.48;;;6.60;99.90;;;;;;5009876;28;20069;-72
2022/12/06 13:40:50;;;;;;;3.50;1.45;;;6.60;99.90;;;;;;4995836;28;20034;-72
2022/12/06 13:43:25;;;;;;;3.13;1.25;;;6.50;99.90;;;;;;4992100;28;20037;-71
2022/12/06 13:46:06;;;;;;;3.20;1.02;;;6.50;99.90;;;;;;5004547;28;20033;-72
2022/12/06 13:48:50;;;;;;;2.58;1.00;;;6.40;99.90;;;;;;4988871;28;20042;-72
2022/12/06 13:51:31;;;;;;;2.35;1.17;;;6.40;99.90;;;;;;4992324;28;20038;-72
2022/12/06 13:54:05;;;;;;;3.38;1.20;;;6.50;99.90;;;;;;4988707;28;20042;-72
2022/12/06 13:56:34;;;;;;;1.27;0.90;;;6.50;99.90;;;;;;4992665;28;20061;-72
2022/12/06 13:59:01;;;;;;;1.80;1.08;;;6.60;99.90;;;;;;5003895;28;20034;-72
2022/12/06 14:01:55;;;;;;;2.42;1.10;;;6.50;99.90;;;;;;4992875;28;20511;-72
2022/12/06 14:04:24;;;;;;;4.45;1.42;;;6.50;99.90;;;;;;5001913;28;20033;-72
2022/12/06 14:07:06;;;;;;;3.00;1.38;;;6.40;99.90;;;;;;5002109;28;20029;-72
2022/12/06 14:09:44;;;;;;;5.97;1.30;;;6.40;99.90;;;;;;4984210;28;20025;-72
2022/12/06 14:12:28;;;;;;;5.20;1.58;;;6.40;99.90;;;;;;4997246;28;20060;-72
2022/12/06 14:15:03;;;;;;;1.60;1.35;;;6.30;99.90;;;;;;4994345;28;20057;-72
2022/12/06 14:17:42;;;;;;;1.88;1.05;;;6.30;99.90;;;;;;4993427;28;20042;-72
2022/12/06 14:20:24;;;;;;;3.83;1.02;;;6.40;99.90;;;;;;4998155;28;20034;-72
2022/12/06 14:22:51;;;;;;;1.88;1.27;;;6.40;99.90;;;;;;4993048;28;20029;-72
2022/12/06 14:25:24;;;;;;;2.85;1.58;;;6.40;99.90;;;;;;5000340;28;20049;-72
2022/12/06 14:28:01;;;;;;;2.17;1.48;;;6.40;99.90;;;;;;5007774;28;20029;-72
2022/12/06 14:30:27;;;;;;;2.92;1.48;;;6.40;99.90;;;;;;4999112;28;20049;-72